sensor_id;sensor_type;location;lat;lon;timestamp;temperature;humidity
45383;DHT22;42455;51.660;5.824;2024-03-06T00:04:43;8.0;93.5
45383;DHT22;42455;51.660;5.824;2024-03-06T00:09:48;7.9;93.5
45383;DHT22;42455;51.660;5.824;2024-03-06T00:14:55;7.9;93.5
45383;DHT22;42455;51.660;5.824;2024-03-06T00:20:01;7.8;93.5
45383;DHT22;42455;51.660;5.824;2024-03-06T00:30:13;7.5;93.5
45383;DHT22;42455;51.660;5.824;2024-03-06T00:35:19;7.5;93.5
45383;DHT22;42455;51.660;5.824;2024-03-06T00:40:26;7.4;93.5
45383;DHT22;42455;51.660;5.824;2024-03-06T00:45:32;7.3;93.5
45383;DHT22;42455;51.660;5.824;2024-03-06T00:50:38;7.3;93.5
45383;DHT22;42455;51.660;5.824;2024-03-06T01:00:51;7.1;94.0
45383;DHT22;42455;51.660;5.824;2024-03-06T01:05:57;7.1;94.0
45383;DHT22;42455;51.660;5.824;2024-03-06T01:11:03;7.0;94.0
45383;DHT22;42455;51.660;5.824;2024-03-06T01:16:09;7.0;94.0
45383;DHT22;42455;51.660;5.824;2024-03-06T01:26:22;6.8;94.0
45383;DHT22;42455;51.660;5.824;2024-03-06T01:31:28;6.7;94.0
45383;DHT22;42455;51.660;5.824;2024-03-06T01:36:34;6.7;94.0
45383;DHT22;42455;51.660;5.824;2024-03-06T01:41:44;6.6;94.0
45383;DHT22;42455;51.660;5.824;2024-03-06T01:46:46;6.5;94.0
45383;DHT22;42455;51.660;5.824;2024-03-06T01:52:00;6.4;94.0
45383;DHT22;42455;51.660;5.824;2024-03-06T01:57:02;6.4;94.0
45383;DHT22;42455;51.660;5.824;2024-03-06T02:02:05;6.4;94.0
45383;DHT22;42455;51.660;5.824;2024-03-06T02:07:12;6.3;94.0
45383;DHT22;42455;51.660;5.824;2024-03-06T02:12:18;6.3;94.0
45383;DHT22;42455;51.660;5.824;2024-03-06T02:17:24;6.3;94.5
45383;DHT22;42455;51.660;5.824;2024-03-06T02:22:30;6.3;94.5
45383;DHT22;42455;51.660;5.824;2024-03-06T02:27:36;6.3;94.5
45383;DHT22;42455;51.660;5.824;2024-03-06T02:32:42;6.3;94.5
45383;DHT22;42455;51.660;5.824;2024-03-06T02:37:49;6.4;94.5
45383;DHT22;42455;51.660;5.824;2024-03-06T02:42:55;6.4;94.5
45383;DHT22;42455;51.660;5.824;2024-03-06T02:48:01;6.4;95.0
45383;DHT22;42455;51.660;5.824;2024-03-06T02:53:07;6.4;95.0
45383;DHT22;42455;51.660;5.824;2024-03-06T02:58:13;6.4;95.0
45383;DHT22;42455;51.660;5.824;2024-03-06T03:03:20;6.4;95.0
45383;DHT22;42455;51.660;5.824;2024-03-06T03:08:26;6.4;95.0
45383;DHT22;42455;51.660;5.824;2024-03-06T03:13:32;6.3;95.0
45383;DHT22;42455;51.660;5.824;2024-03-06T03:18:38;6.3;95.0
45383;DHT22;42455;51.660;5.824;2024-03-06T03:23:44;6.2;94.5
45383;DHT22;42455;51.660;5.824;2024-03-06T03:28:51;6.1;94.5
45383;DHT22;42455;51.660;5.824;2024-03-06T03:33:57;6.1;94.5
45383;DHT22;42455;51.660;5.824;2024-03-06T03:39:03;6.0;94.5
45383;DHT22;42455;51.660;5.824;2024-03-06T03:44:09;5.9;94.5
45383;DHT22;42455;51.660;5.824;2024-03-06T03:49:15;5.8;94.5
45383;DHT22;42455;51.660;5.824;2024-03-06T03:54:22;5.8;94.5
45383;DHT22;42455;51.660;5.824;2024-03-06T03:59:28;5.7;94.5
45383;DHT22;42455;51.660;5.824;2024-03-06T04:04:34;5.7;95.0
45383;DHT22;42455;51.660;5.824;2024-03-06T04:09:40;5.6;95.0
45383;DHT22;42455;51.660;5.824;2024-03-06T04:14:47;5.6;94.5
45383;DHT22;42455;51.660;5.824;2024-03-06T04:19:53;5.6;94.5
45383;DHT22;42455;51.660;5.824;2024-03-06T04:24:59;5.5;94.5
45383;DHT22;42455;51.660;5.824;2024-03-06T04:30:05;5.4;94.5
45383;DHT22;42455;51.660;5.824;2024-03-06T04:35:11;5.4;94.5
45383;DHT22;42455;51.660;5.824;2024-03-06T04:40:17;5.3;94.5
45383;DHT22;42455;51.660;5.824;2024-03-06T04:45:24;5.3;95.0
45383;DHT22;42455;51.660;5.824;2024-03-06T04:50:29;5.3;95.0
45383;DHT22;42455;51.660;5.824;2024-03-06T04:55:35;5.3;95.0
45383;DHT22;42455;51.660;5.824;2024-03-06T05:00:41;5.2;95.0
45383;DHT22;42455;51.660;5.824;2024-03-06T05:05:48;5.2;95.0
45383;DHT22;42455;51.660;5.824;2024-03-06T05:10:54;5.2;95.0
45383;DHT22;42455;51.660;5.824;2024-03-06T05:16:00;5.1;95.0
45383;DHT22;42455;51.660;5.824;2024-03-06T05:21:06;5.1;95.5
45383;DHT22;42455;51.660;5.824;2024-03-06T05:26:12;5.1;95.5
45383;DHT22;42455;51.660;5.824;2024-03-06T05:31:20;5.1;95.5
45383;DHT22;42455;51.660;5.824;2024-03-06T05:36:25;5.1;95.5
45383;DHT22;42455;51.660;5.824;2024-03-06T05:41:31;5.1;95.5
45383;DHT22;42455;51.660;5.824;2024-03-06T05:46:37;5.1;95.5
45383;DHT22;42455;51.660;5.824;2024-03-06T05:51:43;5.1;95.5
45383;DHT22;42455;51.660;5.824;2024-03-06T05:56:50;5.1;95.5
45383;DHT22;42455;51.660;5.824;2024-03-06T06:01:56;5.1;95.5
45383;DHT22;42455;51.660;5.824;2024-03-06T06:07:02;5.1;95.5
45383;DHT22;42455;51.660;5.824;2024-03-06T06:12:08;5.0;95.5
45383;DHT22;42455;51.660;5.824;2024-03-06T06:17:14;5.0;95.5
45383;DHT22;42455;51.660;5.824;2024-03-06T06:22:21;5.0;95.5
45383;DHT22;42455;51.660;5.824;2024-03-06T06:27:27;5.0;95.5
45383;DHT22;42455;51.660;5.824;2024-03-06T06:32:33;5.0;95.5
45383;DHT22;42455;51.660;5.824;2024-03-06T06:37:39;5.0;96.0
45383;DHT22;42455;51.660;5.824;2024-03-06T06:42:49;5.1;96.0
45383;DHT22;42455;51.660;5.824;2024-03-06T06:47:52;5.1;96.0
45383;DHT22;42455;51.660;5.824;2024-03-06T06:52:58;5.1;96.0
45383;DHT22;42455;51.660;5.824;2024-03-06T06:58:04;5.1;96.0
45383;DHT22;42455;51.660;5.824;2024-03-06T07:03:10;5.1;96.0
45383;DHT22;42455;51.660;5.824;2024-03-06T07:08:16;5.2;96.5
45383;DHT22;42455;51.660;5.824;2024-03-06T07:13:23;5.2;96.5
45383;DHT22;42455;51.660;5.824;2024-03-06T07:18:29;5.3;96.5
45383;DHT22;42455;51.660;5.824;2024-03-06T07:23:35;5.4;96.5
45383;DHT22;42455;51.660;5.824;2024-03-06T07:28:41;5.5;96.5
45383;DHT22;42455;51.660;5.824;2024-03-06T07:33:48;5.6;97.0
45383;DHT22;42455;51.660;5.824;2024-03-06T07:38:54;5.7;97.0
45383;DHT22;42455;51.660;5.824;2024-03-06T07:44:00;5.7;96.5
45383;DHT22;42455;51.660;5.824;2024-03-06T07:49:06;5.8;97.0
45383;DHT22;42455;51.660;5.824;2024-03-06T07:54:12;5.9;97.0
45383;DHT22;42455;51.660;5.824;2024-03-06T07:59:19;5.9;97.0
45383;DHT22;42455;51.660;5.824;2024-03-06T08:04:25;6.0;97.0
45383;DHT22;42455;51.660;5.824;2024-03-06T08:09:31;6.1;97.0
45383;DHT22;42455;51.660;5.824;2024-03-06T08:14:37;6.2;97.0
45383;DHT22;42455;51.660;5.824;2024-03-06T08:19:43;6.3;97.0
45383;DHT22;42455;51.660;5.824;2024-03-06T08:24:50;6.4;97.0
45383;DHT22;42455;51.660;5.824;2024-03-06T08:29:56;6.5;97.5
45383;DHT22;42455;51.660;5.824;2024-03-06T08:35:02;6.6;97.5
45383;DHT22;42455;51.660;5.824;2024-03-06T08:40:09;6.7;97.5
45383;DHT22;42455;51.660;5.824;2024-03-06T08:45:15;6.8;97.5
45383;DHT22;42455;51.660;5.824;2024-03-06T08:50:21;0.0;0.0
45383;DHT22;42455;51.660;5.824;2024-03-06T08:55:27;7.0;97.5
45383;DHT22;42455;51.660;5.824;2024-03-06T09:00:33;7.1;98.0
45383;DHT22;42455;51.660;5.824;2024-03-06T09:05:39;7.3;97.5
45383;DHT22;42455;51.660;5.824;2024-03-06T09:10:45;7.4;97.5
45383;DHT22;42455;51.660;5.824;2024-03-06T09:15:52;7.5;98.0
45383;DHT22;42455;51.660;5.824;2024-03-06T09:20:58;7.7;98.0
45383;DHT22;42455;51.660;5.824;2024-03-06T09:26:04;7.8;98.0
45383;DHT22;42455;51.660;5.824;2024-03-06T09:31:10;7.9;98.0
45383;DHT22;42455;51.660;5.824;2024-03-06T09:36:17;8.0;98.0
45383;DHT22;42455;51.660;5.824;2024-03-06T09:41:23;8.1;98.0
45383;DHT22;42455;51.660;5.824;2024-03-06T09:46:29;8.3;98.0
45383;DHT22;42455;51.660;5.824;2024-03-06T09:51:36;8.5;98.0
45383;DHT22;42455;51.660;5.824;2024-03-06T09:56:42;8.6;98.0
45383;DHT22;42455;51.660;5.824;2024-03-06T10:01:54;8.7;98.0
45383;DHT22;42455;51.660;5.824;2024-03-06T10:06:55;8.9;98.0
45383;DHT22;42455;51.660;5.824;2024-03-06T10:12:00;9.0;98.0
45383;DHT22;42455;51.660;5.824;2024-03-06T10:17:06;9.1;97.5
45383;DHT22;42455;51.660;5.824;2024-03-06T10:22:11;9.2;97.5
45383;DHT22;42455;51.660;5.824;2024-03-06T10:27:18;9.3;97.5
45383;DHT22;42455;51.660;5.824;2024-03-06T10:32:24;9.4;97.5
45383;DHT22;42455;51.660;5.824;2024-03-06T10:37:31;9.6;98.0
45383;DHT22;42455;51.660;5.824;2024-03-06T10:42:36;9.8;98.0
45383;DHT22;42455;51.660;5.824;2024-03-06T10:47:45;10.1;98.0
45383;DHT22;42455;51.660;5.824;2024-03-06T10:52:49;10.2;98.0
45383;DHT22;42455;51.660;5.824;2024-03-06T10:57:55;10.5;98.0
45383;DHT22;42455;51.660;5.824;2024-03-06T11:03:01;10.6;98.0
45383;DHT22;42455;51.660;5.824;2024-03-06T11:08:07;10.9;97.5
45383;DHT22;42455;51.660;5.824;2024-03-06T11:13:23;10.9;97.5
45383;DHT22;42455;51.660;5.824;2024-03-06T11:18:42;11.1;97.5
45383;DHT22;42455;51.660;5.824;2024-03-06T11:23:25;11.3;97.0
45383;DHT22;42455;51.660;5.824;2024-03-06T11:28:32;11.4;97.0
45383;DHT22;42455;51.660;5.824;2024-03-06T11:33:38;11.6;97.0
45383;DHT22;42455;51.660;5.824;2024-03-06T11:38:46;11.8;97.0
45383;DHT22;42455;51.660;5.824;2024-03-06T11:43:51;12.0;96.5
45383;DHT22;42455;51.660;5.824;2024-03-06T11:48:56;12.2;96.5
45383;DHT22;42455;51.660;5.824;2024-03-06T11:54:05;12.4;96.5
45383;DHT22;42455;51.660;5.824;2024-03-06T11:59:08;12.6;96.0
45383;DHT22;42455;51.660;5.824;2024-03-06T12:09:21;13.0;95.5
45383;DHT22;42455;51.660;5.824;2024-03-06T12:14:27;13.1;95.0
45383;DHT22;42455;51.660;5.824;2024-03-06T12:19:35;13.3;94.0
45383;DHT22;42455;51.660;5.824;2024-03-06T12:24:40;13.4;93.5
45383;DHT22;42455;51.660;5.824;2024-03-06T12:29:46;13.5;93.5
45383;DHT22;42455;51.660;5.824;2024-03-06T12:34:55;13.7;93.0
45383;DHT22;42455;51.660;5.824;2024-03-06T12:39:58;13.8;92.5
45383;DHT22;42455;51.660;5.824;2024-03-06T12:45:04;13.8;91.5
45383;DHT22;42455;51.660;5.824;2024-03-06T12:50:11;13.8;91.0
45383;DHT22;42455;51.660;5.824;2024-03-06T12:55:17;13.7;91.0
45383;DHT22;42455;51.660;5.824;2024-03-06T13:00:23;13.7;90.5
45383;DHT22;42455;51.660;5.824;2024-03-06T13:05:29;13.8;91.0
45383;DHT22;42455;51.660;5.824;2024-03-06T13:10:35;13.8;90.5
45383;DHT22;42455;51.660;5.824;2024-03-06T13:15:42;13.9;90.5
45383;DHT22;42455;51.660;5.824;2024-03-06T13:20:48;14.0;90.0
45383;DHT22;42455;51.660;5.824;2024-03-06T13:25:54;14.1;89.5
45383;DHT22;42455;51.660;5.824;2024-03-06T13:31:00;14.0;88.5
45383;DHT22;42455;51.660;5.824;2024-03-06T13:36:07;14.0;88.5
45383;DHT22;42455;51.660;5.824;2024-03-06T13:41:13;14.0;88.0
45383;DHT22;42455;51.660;5.824;2024-03-06T13:46:19;14.0;87.5
45383;DHT22;42455;51.660;5.824;2024-03-06T13:51:25;14.0;87.0
45383;DHT22;42455;51.660;5.824;2024-03-06T13:56:31;14.0;87.0
45383;DHT22;42455;51.660;5.824;2024-03-06T14:01:37;14.1;87.0
45383;DHT22;42455;51.660;5.824;2024-03-06T14:06:44;14.1;86.5
45383;DHT22;42455;51.660;5.824;2024-03-06T14:11:50;14.1;86.0
45383;DHT22;42455;51.660;5.824;2024-03-06T14:16:56;14.1;85.5
45383;DHT22;42455;51.660;5.824;2024-03-06T14:22:02;14.1;85.5
45383;DHT22;42455;51.660;5.824;2024-03-06T14:27:09;14.0;85.0
45383;DHT22;42455;51.660;5.824;2024-03-06T14:32:18;14.1;85.5
45383;DHT22;42455;51.660;5.824;2024-03-06T14:37:21;14.2;85.5
45383;DHT22;42455;51.660;5.824;2024-03-06T14:42:27;14.3;86.0
45383;DHT22;42455;51.660;5.824;2024-03-06T14:47:33;14.5;85.5
45383;DHT22;42455;51.660;5.824;2024-03-06T14:52:40;14.7;85.0
45383;DHT22;42455;51.660;5.824;2024-03-06T14:57:46;14.8;85.0
45383;DHT22;42455;51.660;5.824;2024-03-06T15:02:52;14.9;84.5
45383;DHT22;42455;51.660;5.824;2024-03-06T15:07:58;14.9;84.5
45383;DHT22;42455;51.660;5.824;2024-03-06T15:13:04;14.8;84.5
45383;DHT22;42455;51.660;5.824;2024-03-06T15:18:11;14.7;84.5
45383;DHT22;42455;51.660;5.824;2024-03-06T15:23:17;14.6;84.5
45383;DHT22;42455;51.660;5.824;2024-03-06T15:28:23;14.5;85.0
45383;DHT22;42455;51.660;5.824;2024-03-06T15:33:29;14.4;85.5
45383;DHT22;42455;51.660;5.824;2024-03-06T15:38:35;14.3;86.0
45383;DHT22;42455;51.660;5.824;2024-03-06T15:43:42;14.3;86.0
45383;DHT22;42455;51.660;5.824;2024-03-06T15:48:48;14.2;86.0
45383;DHT22;42455;51.660;5.824;2024-03-06T15:53:54;14.1;86.0
45383;DHT22;42455;51.660;5.824;2024-03-06T15:59:00;14.1;86.0
45383;DHT22;42455;51.660;5.824;2024-03-06T16:04:07;14.0;86.0
45383;DHT22;42455;51.660;5.824;2024-03-06T16:09:13;13.9;86.0
45383;DHT22;42455;51.660;5.824;2024-03-06T16:14:19;13.9;86.0
45383;DHT22;42455;51.660;5.824;2024-03-06T16:19:24;13.7;86.0
45383;DHT22;42455;51.660;5.824;2024-03-06T16:24:31;13.7;86.0
45383;DHT22;42455;51.660;5.824;2024-03-06T16:29:37;13.6;86.0
45383;DHT22;42455;51.660;5.824;2024-03-06T16:34:43;13.5;86.0
45383;DHT22;42455;51.660;5.824;2024-03-06T16:39:49;13.4;86.0
45383;DHT22;42455;51.660;5.824;2024-03-06T16:44:55;13.3;86.0
45383;DHT22;42455;51.660;5.824;2024-03-06T16:50:02;13.2;86.5
45383;DHT22;42455;51.660;5.824;2024-03-06T16:55:08;13.1;86.0
45383;DHT22;42455;51.660;5.824;2024-03-06T17:00:14;13.0;86.0
45383;DHT22;42455;51.660;5.824;2024-03-06T17:05:20;12.9;86.0
45383;DHT22;42455;51.660;5.824;2024-03-06T17:10:26;12.8;86.0
45383;DHT22;42455;51.660;5.824;2024-03-06T17:15:33;12.7;86.0
45383;DHT22;42455;51.660;5.824;2024-03-06T17:20:39;12.6;86.0
45383;DHT22;42455;51.660;5.824;2024-03-06T17:25:45;12.5;86.0
45383;DHT22;42455;51.660;5.824;2024-03-06T17:30:52;12.4;86.0
45383;DHT22;42455;51.660;5.824;2024-03-06T17:35:57;12.2;86.0
45383;DHT22;42455;51.660;5.824;2024-03-06T17:41:04;12.1;86.5
45383;DHT22;42455;51.660;5.824;2024-03-06T17:46:10;11.9;86.5
45383;DHT22;42455;51.660;5.824;2024-03-06T17:51:16;11.8;86.5
45383;DHT22;42455;51.660;5.824;2024-03-06T17:56:22;11.6;86.5
45383;DHT22;42455;51.660;5.824;2024-03-06T18:01:28;11.4;87.0
45383;DHT22;42455;51.660;5.824;2024-03-06T18:06:35;11.3;87.0
45383;DHT22;42455;51.660;5.824;2024-03-06T18:11:41;11.1;87.5
45383;DHT22;42455;51.660;5.824;2024-03-06T18:16:47;11.0;87.5
45383;DHT22;42455;51.660;5.824;2024-03-06T18:21:53;10.8;87.5
45383;DHT22;42455;51.660;5.824;2024-03-06T18:27:00;10.7;88.0
45383;DHT22;42455;51.660;5.824;2024-03-06T18:32:06;10.5;88.0
45383;DHT22;42455;51.660;5.824;2024-03-06T18:37:12;10.4;88.0
45383;DHT22;42455;51.660;5.824;2024-03-06T18:42:18;10.2;88.0
45383;DHT22;42455;51.660;5.824;2024-03-06T18:47:24;10.1;88.5
45383;DHT22;42455;51.660;5.824;2024-03-06T18:52:31;10.0;88.5
45383;DHT22;42455;51.660;5.824;2024-03-06T18:57:37;9.8;88.5
45383;DHT22;42455;51.660;5.824;2024-03-06T19:02:43;9.7;89.0
45383;DHT22;42455;51.660;5.824;2024-03-06T19:07:49;9.6;89.5
45383;DHT22;42455;51.660;5.824;2024-03-06T19:12:55;9.5;89.5
45383;DHT22;42455;51.660;5.824;2024-03-06T19:18:02;9.4;89.5
45383;DHT22;42455;51.660;5.824;2024-03-06T19:23:08;9.4;90.0
45383;DHT22;42455;51.660;5.824;2024-03-06T19:28:14;9.4;90.5
45383;DHT22;42455;51.660;5.824;2024-03-06T19:33:20;9.4;90.5
45383;DHT22;42455;51.660;5.824;2024-03-06T19:38:27;9.4;91.0
45383;DHT22;42455;51.660;5.824;2024-03-06T19:43:33;9.4;91.0
45383;DHT22;42455;51.660;5.824;2024-03-06T19:48:39;9.4;91.0
45383;DHT22;42455;51.660;5.824;2024-03-06T19:53:45;9.4;91.5
45383;DHT22;42455;51.660;5.824;2024-03-06T19:58:51;9.4;91.5
45383;DHT22;42455;51.660;5.824;2024-03-06T20:03:57;9.4;91.5
45383;DHT22;42455;51.660;5.824;2024-03-06T20:09:04;9.4;91.5
45383;DHT22;42455;51.660;5.824;2024-03-06T20:14:10;9.3;91.5
45383;DHT22;42455;51.660;5.824;2024-03-06T20:19:16;9.3;91.5
45383;DHT22;42455;51.660;5.824;2024-03-06T20:24:22;9.3;91.5
45383;DHT22;42455;51.660;5.824;2024-03-06T20:29:28;9.2;91.5
45383;DHT22;42455;51.660;5.824;2024-03-06T20:34:36;9.2;91.5
45383;DHT22;42455;51.660;5.824;2024-03-06T20:39:41;9.1;92.0
45383;DHT22;42455;51.660;5.824;2024-03-06T20:44:47;9.1;92.0
45383;DHT22;42455;51.660;5.824;2024-03-06T20:49:53;9.0;92.0
45383;DHT22;42455;51.660;5.824;2024-03-06T20:55:00;9.0;92.0
45383;DHT22;42455;51.660;5.824;2024-03-06T21:00:06;9.0;92.0
45383;DHT22;42455;51.660;5.824;2024-03-06T21:05:12;8.9;92.0
45383;DHT22;42455;51.660;5.824;2024-03-06T21:10:18;8.9;92.0
45383;DHT22;42455;51.660;5.824;2024-03-06T21:15:24;8.8;92.0
45383;DHT22;42455;51.660;5.824;2024-03-06T21:20:30;8.8;92.0
45383;DHT22;42455;51.660;5.824;2024-03-06T21:25:37;8.7;92.0
45383;DHT22;42455;51.660;5.824;2024-03-06T21:30:43;8.6;92.0
45383;DHT22;42455;51.660;5.824;2024-03-06T21:35:49;8.6;92.0
45383;DHT22;42455;51.660;5.824;2024-03-06T21:40:55;8.5;92.5
45383;DHT22;42455;51.660;5.824;2024-03-06T21:46:02;8.4;92.5
45383;DHT22;42455;51.660;5.824;2024-03-06T21:51:07;8.4;92.5
45383;DHT22;42455;51.660;5.824;2024-03-06T21:56:13;8.3;92.5
45383;DHT22;42455;51.660;5.824;2024-03-06T22:01:19;8.2;92.5
45383;DHT22;42455;51.660;5.824;2024-03-06T22:06:25;8.2;92.5
45383;DHT22;42455;51.660;5.824;2024-03-06T22:11:32;8.1;92.5
45383;DHT22;42455;51.660;5.824;2024-03-06T22:16:39;8.0;92.5
45383;DHT22;42455;51.660;5.824;2024-03-06T22:21:44;7.9;92.5
45383;DHT22;42455;51.660;5.824;2024-03-06T22:26:50;7.8;92.5
45383;DHT22;42455;51.660;5.824;2024-03-06T22:31:56;7.8;93.0
45383;DHT22;42455;51.660;5.824;2024-03-06T22:37:03;7.8;93.0
45383;DHT22;42455;51.660;5.824;2024-03-06T22:42:09;7.7;93.0
45383;DHT22;42455;51.660;5.824;2024-03-06T22:47:15;7.7;93.0
45383;DHT22;42455;51.660;5.824;2024-03-06T22:52:21;7.7;93.0
45383;DHT22;42455;51.660;5.824;2024-03-06T22:57:27;7.7;93.5
45383;DHT22;42455;51.660;5.824;2024-03-06T23:02:34;7.7;93.5
45383;DHT22;42455;51.660;5.824;2024-03-06T23:07:40;7.7;94.0
45383;DHT22;42455;51.660;5.824;2024-03-06T23:12:46;7.8;94.0
45383;DHT22;42455;51.660;5.824;2024-03-06T23:17:53;7.8;94.0
45383;DHT22;42455;51.660;5.824;2024-03-06T23:22:58;7.9;94.5
45383;DHT22;42455;51.660;5.824;2024-03-06T23:28:05;7.9;94.5
45383;DHT22;42455;51.660;5.824;2024-03-06T23:33:11;8.0;94.5
45383;DHT22;42455;51.660;5.824;2024-03-06T23:38:17;8.0;94.5
45383;DHT22;42455;51.660;5.824;2024-03-06T23:43:23;8.1;94.5
45383;DHT22;42455;51.660;5.824;2024-03-06T23:48:30;8.1;94.5
45383;DHT22;42455;51.660;5.824;2024-03-06T23:53:36;8.1;94.5
45383;DHT22;42455;51.660;5.824;2024-03-06T23:58:42;8.2;94.5
